KTCC

Tucumcari Municipal Airport

Tucumcari, New Mexico, USA
METAR KTCC 191053Z AUTO 22010KT 10SM CLR 21/17 A2996 RMK AO2 SLP073 T02060172
Observed Flight Rules
Sep-19 @ 10:53 UTC (12 minutes ago) Visual Flight Rules
Wind Visibility Clouds
220° at 10 knots 10 miles
  • Clear skies
Temperatures Readings
Current 21°C / 70°F
Dewpoint 17°C / 63°F
Humidity 78%
Altimeter 29.96" Hg
Pressure 1007.3 hPa
Elevation 1235
METAR KTCC 191053Z AUTO 22010KT 10SM CLR 21/17 A2996 RMK AO2 SLP073 T02060172
Observed Flight Rules
Sep-19 @ 10:53 UTC
(12 minutes ago)
VFR
Wind Visibility
220° at 10 knots 10 miles
Clouds
  • Clear skies
Temperature Dewpoint
21°C / 70°F 17°C / 63°F
Humidity Altimeter Pressure
78% 29.96" Hg 1007.3 hPa